sensor_id;sensor_type;location;lat;lon;timestamp;pressure;altitude;pressure_sealevel;temperature;humidity
21742;BME280;11033;47.490;11.116;2022-11-15T00:01:18;93130.78;;;4.95;68.30
21742;BME280;11033;47.490;11.116;2022-11-15T00:03:44;93128.78;;;4.81;70.69
21742;BME280;11033;47.490;11.116;2022-11-15T00:06:10;93128.47;;;4.84;68.34
21742;BME280;11033;47.490;11.116;2022-11-15T00:08:35;93127.91;;;4.72;70.43
21742;BME280;11033;47.490;11.116;2022-11-15T00:11:02;93127.56;;;4.67;70.03
21742;BME280;11033;47.490;11.116;2022-11-15T00:13:28;93129.00;;;4.62;71.57
21742;BME280;11033;47.490;11.116;2022-11-15T00:15:57;93125.44;;;4.63;71.08
21742;BME280;11033;47.490;11.116;2022-11-15T00:18:23;93125.94;;;4.66;69.88
21742;BME280;11033;47.490;11.116;2022-11-15T00:20:48;93128.19;;;4.61;69.77
21742;BME280;11033;47.490;11.116;2022-11-15T00:23:14;93123.47;;;4.65;70.57
21742;BME280;11033;47.490;11.116;2022-11-15T00:25:39;93120.81;;;4.57;71.08
21742;BME280;11033;47.490;11.116;2022-11-15T00:28:04;93119.19;;;4.56;70.39
21742;BME280;11033;47.490;11.116;2022-11-15T00:30:30;93120.59;;;4.50;71.01
21742;BME280;11033;47.490;11.116;2022-11-15T00:32:55;93113.16;;;4.55;69.97
21742;BME280;11033;47.490;11.116;2022-11-15T00:35:21;93106.69;;;4.41;72.22
21742;BME280;11033;47.490;11.116;2022-11-15T00:37:47;93100.00;;;4.39;71.70
21742;BME280;11033;47.490;11.116;2022-11-15T00:40:14;93103.44;;;4.39;71.44
21742;BME280;11033;47.490;11.116;2022-11-15T00:42:39;93104.09;;;4.41;71.58
21742;BME280;11033;47.490;11.116;2022-11-15T00:45:05;93103.44;;;4.39;71.55
21742;BME280;11033;47.490;11.116;2022-11-15T00:47:30;93098.38;;;4.38;70.94
21742;BME280;11033;47.490;11.116;2022-11-15T00:49:56;93098.22;;;4.39;70.69
21742;BME280;11033;47.490;11.116;2022-11-15T00:52:21;93102.09;;;4.35;71.52
21742;BME280;11033;47.490;11.116;2022-11-15T00:54:46;93095.44;;;4.41;70.98
21742;BME280;11033;47.490;11.116;2022-11-15T00:57:12;93088.56;;;4.32;70.87
21742;BME280;11033;47.490;11.116;2022-11-15T00:59:37;93094.94;;;4.37;70.13
21742;BME280;11033;47.490;11.116;2022-11-15T01:02:02;93091.34;;;4.38;71.83
21742;BME280;11033;47.490;11.116;2022-11-15T01:04:28;93086.16;;;4.38;70.66
21742;BME280;11033;47.490;11.116;2022-11-15T01:06:53;93080.63;;;4.41;70.54
21742;BME280;11033;47.490;11.116;2022-11-15T01:09:19;93082.56;;;4.39;71.78
21742;BME280;11033;47.490;11.116;2022-11-15T01:11:44;93071.47;;;4.37;71.20
21742;BME280;11033;47.490;11.116;2022-11-15T01:14:09;93075.06;;;4.36;72.17
21742;BME280;11033;47.490;11.116;2022-11-15T01:16:35;93067.63;;;4.50;70.63
21742;BME280;11033;47.490;11.116;2022-11-15T01:19:00;93074.78;;;4.47;71.76
21742;BME280;11033;47.490;11.116;2022-11-15T01:21:25;93070.50;;;4.38;72.09
21742;BME280;11033;47.490;11.116;2022-11-15T01:23:55;93067.53;;;4.33;70.99
21742;BME280;11033;47.490;11.116;2022-11-15T01:26:21;93070.50;;;4.38;71.56
21742;BME280;11033;47.490;11.116;2022-11-15T01:28:47;93070.81;;;4.35;71.25
21742;BME280;11033;47.490;11.116;2022-11-15T01:31:15;93065.91;;;4.32;71.47
21742;BME280;11033;47.490;11.116;2022-11-15T01:33:41;93065.03;;;4.50;70.59
21742;BME280;11033;47.490;11.116;2022-11-15T01:36:10;93052.59;;;4.43;70.05
21742;BME280;11033;47.490;11.116;2022-11-15T01:38:36;93055.38;;;4.42;70.80
21742;BME280;11033;47.490;11.116;2022-11-15T01:41:01;93049.84;;;4.45;70.21
21742;BME280;11033;47.490;11.116;2022-11-15T01:43:30;93050.00;;;4.43;70.39
21742;BME280;11033;47.490;11.116;2022-11-15T01:46:00;93036.50;;;4.48;70.21
21742;BME280;11033;47.490;11.116;2022-11-15T01:48:32;93039.22;;;4.38;71.15
21742;BME280;11033;47.490;11.116;2022-11-15T01:51:06;93048.50;;;4.41;69.65
21742;BME280;11033;47.490;11.116;2022-11-15T01:53:33;93044.75;;;4.35;71.05
21742;BME280;11033;47.490;11.116;2022-11-15T01:56:02;93032.06;;;4.40;70.88
21742;BME280;11033;47.490;11.116;2022-11-15T01:58:29;93033.34;;;4.36;70.19
21742;BME280;11033;47.490;11.116;2022-11-15T02:00:54;93029.91;;;4.36;70.85
21742;BME280;11033;47.490;11.116;2022-11-15T02:03:22;93027.47;;;4.34;69.84
21742;BME280;11033;47.490;11.116;2022-11-15T02:05:51;93022.91;;;4.36;70.12
21742;BME280;11033;47.490;11.116;2022-11-15T02:08:16;93016.56;;;4.39;69.26
21742;BME280;11033;47.490;11.116;2022-11-15T02:10:48;93014.91;;;4.30;72.29
21742;BME280;11033;47.490;11.116;2022-11-15T02:13:17;93016.72;;;4.37;70.69
21742;BME280;11033;47.490;11.116;2022-11-15T02:18:26;92995.78;;;4.21;71.83
21742;BME280;11033;47.490;11.116;2022-11-15T02:21:22;93002.84;;;4.29;71.38
21742;BME280;11033;47.490;11.116;2022-11-15T02:34:25;92992.53;;;4.19;70.64
21742;BME280;11033;47.490;11.116;2022-11-15T02:37:17;92996.09;;;4.18;71.23
21742;BME280;11033;47.490;11.116;2022-11-15T02:39:54;92983.44;;;4.23;71.41
21742;BME280;11033;47.490;11.116;2022-11-15T02:42:26;92981.78;;;4.22;71.60
21742;BME280;11033;47.490;11.116;2022-11-15T02:45:17;92984.09;;;4.25;70.96
21742;BME280;11033;47.490;11.116;2022-11-15T02:47:45;92973.03;;;4.31;70.67
21742;BME280;11033;47.490;11.116;2022-11-15T02:50:15;92969.06;;;4.19;71.23
21742;BME280;11033;47.490;11.116;2022-11-15T02:52:45;92975.59;;;4.23;70.54
21742;BME280;11033;47.490;11.116;2022-11-15T02:55:30;92971.38;;;4.22;71.29
21742;BME280;11033;47.490;11.116;2022-11-15T03:01:16;92960.59;;;4.17;71.04
21742;BME280;11033;47.490;11.116;2022-11-15T03:11:59;92951.75;;;4.10;70.71
21742;BME280;11033;47.490;11.116;2022-11-15T03:14:34;92952.91;;;4.07;71.83
21742;BME280;11033;47.490;11.116;2022-11-15T03:22:07;92953.31;;;4.29;71.02
21742;BME280;11033;47.490;11.116;2022-11-15T03:24:36;92943.34;;;4.24;70.94
21742;BME280;11033;47.490;11.116;2022-11-15T03:27:04;92947.25;;;4.20;71.75
21742;BME280;11033;47.490;11.116;2022-11-15T03:29:35;92957.66;;;4.20;70.16
21742;BME280;11033;47.490;11.116;2022-11-15T03:32:10;92949.84;;;4.20;70.35
21742;BME280;11033;47.490;11.116;2022-11-15T03:34:44;92949.50;;;4.15;70.43
21742;BME280;11033;47.490;11.116;2022-11-15T03:37:13;92948.06;;;4.21;69.97
21742;BME280;11033;47.490;11.116;2022-11-15T03:39:40;92940.72;;;4.16;70.86
21742;BME280;11033;47.490;11.116;2022-11-15T03:42:28;92938.72;;;4.10;70.29
21742;BME280;11033;47.490;11.116;2022-11-15T03:45:13;92939.72;;;4.09;70.30
21742;BME280;11033;47.490;11.116;2022-11-15T03:47:46;92940.84;;;4.06;71.76
21742;BME280;11033;47.490;11.116;2022-11-15T03:50:17;92944.25;;;4.07;70.89
21742;BME280;11033;47.490;11.116;2022-11-15T03:52:45;92930.06;;;4.01;71.89
21742;BME280;11033;47.490;11.116;2022-11-15T03:55:15;92931.03;;;4.00;71.38
21742;BME280;11033;47.490;11.116;2022-11-15T03:57:41;92927.31;;;4.03;71.35
21742;BME280;11033;47.490;11.116;2022-11-15T04:00:07;92927.13;;;3.96;71.84
21742;BME280;11033;47.490;11.116;2022-11-15T04:02:33;92926.75;;;3.91;71.66
21742;BME280;11033;47.490;11.116;2022-11-15T04:04:58;92934.13;;;3.96;71.10
21742;BME280;11033;47.490;11.116;2022-11-15T04:07:23;92924.44;;;3.88;72.79
21742;BME280;11033;47.490;11.116;2022-11-15T04:09:49;92925.94;;;3.91;71.66
21742;BME280;11033;47.490;11.116;2022-11-15T04:12:42;92922.38;;;3.92;71.03
21742;BME280;11033;47.490;11.116;2022-11-15T04:15:14;92917.44;;;3.89;72.18
21742;BME280;11033;47.490;11.116;2022-11-15T04:17:47;92912.69;;;3.84;72.20
21742;BME280;11033;47.490;11.116;2022-11-15T04:20:19;92910.25;;;3.82;72.59
21742;BME280;11033;47.490;11.116;2022-11-15T04:23:07;92915.09;;;3.77;72.44
21742;BME280;11033;47.490;11.116;2022-11-15T04:25:52;92922.66;;;3.89;72.28
21742;BME280;11033;47.490;11.116;2022-11-15T04:28:19;92924.91;;;3.83;72.12
21742;BME280;11033;47.490;11.116;2022-11-15T04:30:44;92920.34;;;3.86;70.84
21742;BME280;11033;47.490;11.116;2022-11-15T04:33:10;92934.50;;;3.83;70.87
21742;BME280;11033;47.490;11.116;2022-11-15T04:35:35;92932.88;;;3.82;71.22
21742;BME280;11033;47.490;11.116;2022-11-15T04:38:02;92925.88;;;3.82;70.69
21742;BME280;11033;47.490;11.116;2022-11-15T04:40:27;92925.88;;;3.82;71.95
21742;BME280;11033;47.490;11.116;2022-11-15T04:42:53;92921.94;;;3.78;71.41
21742;BME280;11033;47.490;11.116;2022-11-15T04:45:18;92924.25;;;3.81;71.82
21742;BME280;11033;47.490;11.116;2022-11-15T04:47:44;92925.84;;;3.74;72.49
21742;BME280;11033;47.490;11.116;2022-11-15T04:50:10;92917.66;;;3.69;71.75
21742;BME280;11033;47.490;11.116;2022-11-15T04:52:41;92913.78;;;3.73;71.43
21742;BME280;11033;47.490;11.116;2022-11-15T04:55:09;92904.66;;;3.69;71.84
21742;BME280;11033;47.490;11.116;2022-11-15T04:57:34;92905.81;;;3.75;72.12
21742;BME280;11033;47.490;11.116;2022-11-15T04:59:59;92893.88;;;3.64;71.88
21742;BME280;11033;47.490;11.116;2022-11-15T05:02:25;92893.63;;;3.75;71.46
21742;BME280;11033;47.490;11.116;2022-11-15T05:05:10;92891.63;;;3.69;71.17
21742;BME280;11033;47.490;11.116;2022-11-15T05:07:35;92883.16;;;3.67;71.92
21742;BME280;11033;47.490;11.116;2022-11-15T05:10:01;92875.69;;;3.72;71.38
21742;BME280;11033;47.490;11.116;2022-11-15T05:12:26;92869.78;;;3.62;72.75
21742;BME280;11033;47.490;11.116;2022-11-15T05:14:51;92865.41;;;3.63;71.58
21742;BME280;11033;47.490;11.116;2022-11-15T05:17:16;92863.59;;;3.63;71.83
21742;BME280;11033;47.490;11.116;2022-11-15T05:19:42;92866.88;;;3.65;72.90
21742;BME280;11033;47.490;11.116;2022-11-15T05:22:07;92860.69;;;3.66;71.96
21742;BME280;11033;47.490;11.116;2022-11-15T05:24:32;92868.81;;;3.63;71.95
21742;BME280;11033;47.490;11.116;2022-11-15T05:26:57;92873.06;;;3.64;72.73
21742;BME280;11033;47.490;11.116;2022-11-15T05:29:23;92881.53;;;3.66;72.08
21742;BME280;11033;47.490;11.116;2022-11-15T05:31:48;92875.69;;;3.72;71.99
21742;BME280;11033;47.490;11.116;2022-11-15T05:34:13;92865.94;;;3.74;70.96
21742;BME280;11033;47.490;11.116;2022-11-15T05:36:43;92869.66;;;3.72;71.74
21742;BME280;11033;47.490;11.116;2022-11-15T05:39:10;92868.25;;;3.86;71.50
21742;BME280;11033;47.490;11.116;2022-11-15T05:41:42;92876.22;;;3.84;71.81
21742;BME280;11033;47.490;11.116;2022-11-15T05:44:11;92876.22;;;3.84;70.85
21742;BME280;11033;47.490;11.116;2022-11-15T05:46:39;92874.78;;;3.90;71.31
21742;BME280;11033;47.490;11.116;2022-11-15T05:49:07;92874.44;;;3.85;71.26
21742;BME280;11033;47.490;11.116;2022-11-15T05:51:35;92870.88;;;3.86;69.71
21742;BME280;11033;47.490;11.116;2022-11-15T05:54:01;92865.78;;;3.76;72.40
21742;BME280;11033;47.490;11.116;2022-11-15T05:56:27;92871.81;;;3.76;72.66
21742;BME280;11033;47.490;11.116;2022-11-15T05:58:54;92860.56;;;3.76;71.39
21742;BME280;11033;47.490;11.116;2022-11-15T06:01:20;92865.91;;;3.66;72.13
21742;BME280;11033;47.490;11.116;2022-11-15T06:03:45;92849.03;;;3.78;71.91
21742;BME280;11033;47.490;11.116;2022-11-15T06:06:11;92848.34;;;3.68;72.31
21742;BME280;11033;47.490;11.116;2022-11-15T06:08:36;92848.34;;;3.68;72.62
21742;BME280;11033;47.490;11.116;2022-11-15T06:11:06;92853.84;;;3.65;72.18
21742;BME280;11033;47.490;11.116;2022-11-15T06:13:32;92859.75;;;3.75;72.11
21742;BME280;11033;47.490;11.116;2022-11-15T06:15:57;92850.28;;;3.66;72.12
21742;BME280;11033;47.490;11.116;2022-11-15T06:18:23;92844.06;;;3.59;72.83
21742;BME280;11033;47.490;11.116;2022-11-15T06:20:48;92845.69;;;3.60;71.51
21742;BME280;11033;47.490;11.116;2022-11-15T06:23:13;92847.63;;;3.58;72.36
21742;BME280;11033;47.490;11.116;2022-11-15T06:25:39;92843.25;;;3.59;71.38
21742;BME280;11033;47.490;11.116;2022-11-15T06:28:04;92846.50;;;3.61;71.59
21742;BME280;11033;47.490;11.116;2022-11-15T06:30:29;92843.75;;;3.62;71.83
21742;BME280;11033;47.490;11.116;2022-11-15T06:33:02;92843.75;;;3.62;71.21
21742;BME280;11033;47.490;11.116;2022-11-15T06:35:29;92841.78;;;3.56;71.26
21742;BME280;11033;47.490;11.116;2022-11-15T06:37:55;92841.09;;;3.54;71.83
21742;BME280;11033;47.490;11.116;2022-11-15T06:40:20;92828.88;;;3.46;72.84
21742;BME280;11033;47.490;11.116;2022-11-15T06:42:45;92834.06;;;3.46;72.23
21742;BME280;11033;47.490;11.116;2022-11-15T06:45:11;92833.88;;;3.40;73.53
21742;BME280;11033;47.490;11.116;2022-11-15T06:47:44;92834.44;;;3.52;71.32
21742;BME280;11033;47.490;11.116;2022-11-15T06:50:09;92834.28;;;3.53;72.04
21742;BME280;11033;47.490;11.116;2022-11-15T06:52:34;92840.28;;;3.54;71.49
21742;BME280;11033;47.490;11.116;2022-11-15T06:55:00;92830.69;;;3.54;72.16
21742;BME280;11033;47.490;11.116;2022-11-15T06:57:25;92832.31;;;3.55;72.53
21742;BME280;11033;47.490;11.116;2022-11-15T06:59:50;92841.81;;;3.64;72.85
21742;BME280;11033;47.490;11.116;2022-11-15T07:02:16;92847.00;;;3.64;72.66
21742;BME280;11033;47.490;11.116;2022-11-15T07:04:41;92842.63;;;3.65;72.25
21742;BME280;11033;47.490;11.116;2022-11-15T07:07:06;92846.84;;;3.66;71.99
21742;BME280;11033;47.490;11.116;2022-11-15T07:09:31;92847.97;;;3.63;71.38
21742;BME280;11033;47.490;11.116;2022-11-15T07:11:57;92846.19;;;3.64;72.33
21742;BME280;11033;47.490;11.116;2022-11-15T07:14:22;92845.88;;;3.67;71.57
21742;BME280;11033;47.490;11.116;2022-11-15T07:16:47;92836.63;;;3.72;71.33
21742;BME280;11033;47.490;11.116;2022-11-15T07:19:12;92829.13;;;3.69;71.68
21742;BME280;11033;47.490;11.116;2022-11-15T07:21:38;92824.91;;;3.68;72.43
21742;BME280;11033;47.490;11.116;2022-11-15T07:24:04;92822.31;;;3.76;71.81
21742;BME280;11033;47.490;11.116;2022-11-15T07:26:29;92817.78;;;3.78;70.87
21742;BME280;11033;47.490;11.116;2022-11-15T07:28:54;92812.56;;;3.78;71.10
21742;BME280;11033;47.490;11.116;2022-11-15T07:31:19;92818.31;;;3.90;71.19
21742;BME280;11033;47.490;11.116;2022-11-15T07:33:45;92829.09;;;3.95;71.00
21742;BME280;11033;47.490;11.116;2022-11-15T07:36:10;92811.97;;;3.93;71.71
21742;BME280;11033;47.490;11.116;2022-11-15T07:38:35;92800.25;;;3.97;72.06
21742;BME280;11033;47.490;11.116;2022-11-15T07:41:03;92808.09;;;4.05;70.75
21742;BME280;11033;47.490;11.116;2022-11-15T07:43:28;92805.19;;;4.16;70.99
21742;BME280;11033;47.490;11.116;2022-11-15T07:45:55;92808.94;;;4.22;71.06
21742;BME280;11033;47.490;11.116;2022-11-15T07:48:20;92805.84;;;4.26;70.41
21742;BME280;11033;47.490;11.116;2022-11-15T07:50:46;92793.81;;;4.41;70.50
21742;BME280;11033;47.490;11.116;2022-11-15T07:53:11;92793.66;;;4.51;69.81
21742;BME280;11033;47.490;11.116;2022-11-15T07:55:37;92792.84;;;4.51;69.73
21742;BME280;11033;47.490;11.116;2022-11-15T07:58:07;92794.31;;;4.53;70.16
21742;BME280;11033;47.490;11.116;2022-11-15T08:00:34;92781.47;;;4.60;70.61
21742;BME280;11033;47.490;11.116;2022-11-15T08:03:11;92783.75;;;4.79;69.80
21742;BME280;11033;47.490;11.116;2022-11-15T08:05:38;92772.16;;;4.90;69.36
21742;BME280;11033;47.490;11.116;2022-11-15T08:08:04;92775.22;;;5.01;69.12
21742;BME280;11033;47.490;11.116;2022-11-15T08:10:30;92771.63;;;5.10;69.19
21742;BME280;11033;47.490;11.116;2022-11-15T08:13:00;92768.94;;;5.43;68.36
21742;BME280;11033;47.490;11.116;2022-11-15T08:15:26;92764.00;;;5.56;68.03
21742;BME280;11033;47.490;11.116;2022-11-15T08:17:59;92763.47;;;6.08;66.68
21742;BME280;11033;47.490;11.116;2022-11-15T08:20:26;92756.38;;;6.40;65.84
21742;BME280;11033;47.490;11.116;2022-11-15T08:22:53;92742.28;;;6.86;65.00
21742;BME280;11033;47.490;11.116;2022-11-15T08:25:18;92746.50;;;7.25;64.63
21742;BME280;11033;47.490;11.116;2022-11-15T08:27:44;92748.69;;;7.36;64.01
21742;BME280;11033;47.490;11.116;2022-11-15T08:30:10;92737.53;;;7.78;62.84
21742;BME280;11033;47.490;11.116;2022-11-15T08:32:36;92734.84;;;8.22;61.91
21742;BME280;11033;47.490;11.116;2022-11-15T08:35:02;92737.50;;;8.44;59.81
21742;BME280;11033;47.490;11.116;2022-11-15T08:37:27;92725.59;;;8.63;60.88
21742;BME280;11033;47.490;11.116;2022-11-15T08:39:53;92725.63;;;8.69;59.33
21742;BME280;11033;47.490;11.116;2022-11-15T08:42:18;92717.78;;;8.97;59.78
21742;BME280;11033;47.490;11.116;2022-11-15T08:44:43;92712.56;;;9.66;57.68
21742;BME280;11033;47.490;11.116;2022-11-15T08:47:11;92714.03;;;10.23;57.14
21742;BME280;11033;47.490;11.116;2022-11-15T08:49:37;92700.78;;;10.84;55.60
21742;BME280;11033;47.490;11.116;2022-11-15T08:52:03;92705.16;;;11.63;55.72
21742;BME280;11033;47.490;11.116;2022-11-15T08:54:28;92705.44;;;12.13;53.52
21742;BME280;11033;47.490;11.116;2022-11-15T08:56:53;92703.75;;;12.25;52.96
21742;BME280;11033;47.490;11.116;2022-11-15T08:59:18;92695.59;;;12.40;50.41
21742;BME280;11033;47.490;11.116;2022-11-15T09:01:44;92698.56;;;13.38;52.05
21742;BME280;11033;47.490;11.116;2022-11-15T09:04:09;92696.69;;;13.63;50.56
21742;BME280;11033;47.490;11.116;2022-11-15T09:06:34;92690.78;;;13.61;49.82
21742;BME280;11033;47.490;11.116;2022-11-15T09:09:00;92689.31;;;13.47;49.37
21742;BME280;11033;47.490;11.116;2022-11-15T09:11:26;92675.28;;;14.19;50.75
21742;BME280;11033;47.490;11.116;2022-11-15T09:13:51;92665.97;;;14.77;45.62
21742;BME280;11033;47.490;11.116;2022-11-15T09:16:17;92668.03;;;14.75;46.19
21742;BME280;11033;47.490;11.116;2022-11-15T09:18:42;92662.00;;;15.56;46.34
21742;BME280;11033;47.490;11.116;2022-11-15T09:21:08;92646.09;;;15.21;46.17
21742;BME280;11033;47.490;11.116;2022-11-15T09:23:34;92650.72;;;15.49;45.22
21742;BME280;11033;47.490;11.116;2022-11-15T09:26:00;92643.91;;;16.57;43.50
21742;BME280;11033;47.490;11.116;2022-11-15T09:28:28;92642.63;;;16.88;43.24
21742;BME280;11033;47.490;11.116;2022-11-15T09:31:01;92643.50;;;16.76;42.33
21742;BME280;11033;47.490;11.116;2022-11-15T09:33:27;92646.44;;;16.92;40.86
21742;BME280;11033;47.490;11.116;2022-11-15T09:35:53;92628.78;;;17.69;41.09
21742;BME280;11033;47.490;11.116;2022-11-15T09:38:19;92634.75;;;18.91;40.46
21742;BME280;11033;47.490;11.116;2022-11-15T09:40:50;92627.50;;;18.37;39.56
21742;BME280;11033;47.490;11.116;2022-11-15T09:49:03;92613.38;;;19.23;37.23
21742;BME280;11033;47.490;11.116;2022-11-15T09:51:32;92612.66;;;19.65;37.95
21742;BME280;11033;47.490;11.116;2022-11-15T09:54:01;92616.13;;;19.65;35.57
21742;BME280;11033;47.490;11.116;2022-11-15T09:56:30;92607.00;;;20.13;37.44
21742;BME280;11033;47.490;11.116;2022-11-15T09:59:17;92607.97;;;19.87;36.59
21742;BME280;11033;47.490;11.116;2022-11-15T10:04:36;92604.28;;;20.61;34.12
21742;BME280;11033;47.490;11.116;2022-11-15T10:09:42;92585.28;;;23.13;33.25
21742;BME280;11033;47.490;11.116;2022-11-15T10:12:12;92576.25;;;21.55;33.02
21742;BME280;11033;47.490;11.116;2022-11-15T10:14:38;92559.72;;;23.50;32.87
21742;BME280;11033;47.490;11.116;2022-11-15T10:22:39;92553.47;;;23.83;33.89
21742;BME280;11033;47.490;11.116;2022-11-15T10:27:33;92543.38;;;24.84;32.76
21742;BME280;11033;47.490;11.116;2022-11-15T10:30:00;92537.09;;;24.89;27.57
21742;BME280;11033;47.490;11.116;2022-11-15T10:32:26;92533.97;;;25.19;29.84
21742;BME280;11033;47.490;11.116;2022-11-15T10:34:52;92529.69;;;25.00;29.63
21742;BME280;11033;47.490;11.116;2022-11-15T10:37:31;92517.44;;;26.00;28.88
21742;BME280;11033;47.490;11.116;2022-11-15T10:40:21;92516.53;;;25.77;30.35
21742;BME280;11033;47.490;11.116;2022-11-15T10:42:47;92504.69;;;27.41;27.70
21742;BME280;11033;47.490;11.116;2022-11-15T10:45:30;92496.72;;;27.22;25.23
21742;BME280;11033;47.490;11.116;2022-11-15T10:48:20;92489.19;;;27.33;27.88
21742;BME280;11033;47.490;11.116;2022-11-15T10:50:47;92494.53;;;27.77;26.42
21742;BME280;11033;47.490;11.116;2022-11-15T10:55:49;92478.13;;;29.57;26.56
21742;BME280;11033;47.490;11.116;2022-11-15T11:01:27;92469.03;;;29.44;24.99
21742;BME280;11033;47.490;11.116;2022-11-15T11:04:05;92472.47;;;29.71;23.96
21742;BME280;11033;47.490;11.116;2022-11-15T11:06:52;92464.88;;;29.47;24.83
21742;BME280;11033;47.490;11.116;2022-11-15T11:09:36;92458.72;;;30.81;23.71
21742;BME280;11033;47.490;11.116;2022-11-15T11:12:04;92451.91;;;31.62;24.43
21742;BME280;11033;47.490;11.116;2022-11-15T11:14:32;92445.97;;;29.67;23.07
21742;BME280;11033;47.490;11.116;2022-11-15T11:22:40;92435.22;;;31.97;22.46
21742;BME280;11033;47.490;11.116;2022-11-15T11:25:18;92432.38;;;32.05;21.63
21742;BME280;11033;47.490;11.116;2022-11-15T11:28:50;92418.81;;;31.27;22.69
21742;BME280;11033;47.490;11.116;2022-11-15T11:30:58;92416.09;;;32.70;22.55
21742;BME280;11033;47.490;11.116;2022-11-15T11:33:34;92414.16;;;31.73;23.02
21742;BME280;11033;47.490;11.116;2022-11-15T11:44:34;92401.34;;;29.39;21.92
21742;BME280;11033;47.490;11.116;2022-11-15T11:47:12;92402.94;;;32.60;20.51
21742;BME280;11033;47.490;11.116;2022-11-15T11:49:47;92395.53;;;32.72;21.94
21742;BME280;11033;47.490;11.116;2022-11-15T11:57:44;92383.56;;;33.77;20.81
21742;BME280;11033;47.490;11.116;2022-11-15T12:05:54;92375.16;;;33.10;19.53
21742;BME280;11033;47.490;11.116;2022-11-15T12:11:37;92361.09;;;35.81;18.67
21742;BME280;11033;47.490;11.116;2022-11-15T12:14:11;92366.94;;;36.52;18.64
21742;BME280;11033;47.490;11.116;2022-11-15T12:16:42;92361.69;;;35.52;19.15
21742;BME280;11033;47.490;11.116;2022-11-15T12:19:08;92363.53;;;36.13;18.90
21742;BME280;11033;47.490;11.116;2022-11-15T12:21:54;92363.38;;;36.78;19.26
21742;BME280;11033;47.490;11.116;2022-11-15T12:24:35;92355.97;;;33.34;17.84
21742;BME280;11033;47.490;11.116;2022-11-15T12:29:43;92353.78;;;35.47;18.17
21742;BME280;11033;47.490;11.116;2022-11-15T12:32:23;92348.91;;;35.37;18.96
21742;BME280;11033;47.490;11.116;2022-11-15T12:34:50;92353.72;;;36.12;18.25
21742;BME280;11033;47.490;11.116;2022-11-15T12:40:16;92347.00;;;35.41;17.36
21742;BME280;11033;47.490;11.116;2022-11-15T12:45:39;92356.97;;;37.00;17.36
21742;BME280;11033;47.490;11.116;2022-11-15T12:56:09;92343.00;;;36.79;17.23
21742;BME280;11033;47.490;11.116;2022-11-15T12:58:58;92340.91;;;37.32;16.29
21742;BME280;11033;47.490;11.116;2022-11-15T13:06:46;92346.59;;;36.57;17.85
21742;BME280;11033;47.490;11.116;2022-11-15T13:12:47;92335.38;;;36.69;17.18
21742;BME280;11033;47.490;11.116;2022-11-15T13:14:50;92330.69;;;31.44;22.21
21742;BME280;11033;47.490;11.116;2022-11-15T13:19:45;92325.41;;;30.40;22.88
21742;BME280;11033;47.490;11.116;2022-11-15T13:22:11;92334.88;;;28.98;24.86
21742;BME280;11033;47.490;11.116;2022-11-15T13:24:55;92329.94;;;28.23;23.99
21742;BME280;11033;47.490;11.116;2022-11-15T13:27:21;92324.56;;;27.17;24.63
21742;BME280;11033;47.490;11.116;2022-11-15T13:29:47;92325.28;;;26.56;24.63
21742;BME280;11033;47.490;11.116;2022-11-15T13:32:13;92324.44;;;25.61;25.89
21742;BME280;11033;47.490;11.116;2022-11-15T13:34:44;92333.03;;;25.22;27.48
21742;BME280;11033;47.490;11.116;2022-11-15T13:37:31;92325.94;;;24.99;26.46
21742;BME280;11033;47.490;11.116;2022-11-15T13:40:56;92333.81;;;23.92;27.32
21742;BME280;11033;47.490;11.116;2022-11-15T13:42:56;92337.91;;;23.23;28.57
21742;BME280;11033;47.490;11.116;2022-11-15T13:45:22;92341.94;;;23.02;28.67
21742;BME280;11033;47.490;11.116;2022-11-15T13:47:55;92336.28;;;22.11;30.04
21742;BME280;11033;47.490;11.116;2022-11-15T13:50:28;92339.53;;;20.89;32.13
21742;BME280;11033;47.490;11.116;2022-11-15T13:52:58;92336.31;;;20.77;32.18
21742;BME280;11033;47.490;11.116;2022-11-15T13:55:26;92338.75;;;20.64;32.81
21742;BME280;11033;47.490;11.116;2022-11-15T13:57:56;92332.06;;;20.61;32.86
21742;BME280;11033;47.490;11.116;2022-11-15T14:00:39;92341.72;;;20.32;32.99
21742;BME280;11033;47.490;11.116;2022-11-15T14:03:19;92332.09;;;20.10;34.16
21742;BME280;11033;47.490;11.116;2022-11-15T14:06:09;92332.59;;;19.72;34.11
21742;BME280;11033;47.490;11.116;2022-11-15T14:08:41;92342.09;;;19.37;34.28
21742;BME280;11033;47.490;11.116;2022-11-15T14:11:08;92338.25;;;18.97;35.73
21742;BME280;11033;47.490;11.116;2022-11-15T14:13:34;92341.44;;;18.52;36.91
21742;BME280;11033;47.490;11.116;2022-11-15T14:18:47;92340.41;;;17.57;37.68
21742;BME280;11033;47.490;11.116;2022-11-15T14:21:13;92342.22;;;17.79;38.46
21742;BME280;11033;47.490;11.116;2022-11-15T14:23:39;92346.09;;;17.44;41.54
21742;BME280;11033;47.490;11.116;2022-11-15T14:26:05;92342.28;;;17.35;40.03
21742;BME280;11033;47.490;11.116;2022-11-15T14:28:32;92345.41;;;16.83;40.80
21742;BME280;11033;47.490;11.116;2022-11-15T14:31:04;92353.25;;;16.73;40.34
21742;BME280;11033;47.490;11.116;2022-11-15T14:33:33;92343.50;;;16.62;41.41
21742;BME280;11033;47.490;11.116;2022-11-15T14:38:30;92359.63;;;15.83;43.33
21742;BME280;11033;47.490;11.116;2022-11-15T14:40:55;92354.78;;;16.13;42.19
21742;BME280;11033;47.490;11.116;2022-11-15T14:43:22;92356.00;;;15.72;43.94
21742;BME280;11033;47.490;11.116;2022-11-15T14:45:47;92346.81;;;15.51;44.56
21742;BME280;11033;47.490;11.116;2022-11-15T14:48:12;92357.09;;;14.91;47.39
21742;BME280;11033;47.490;11.116;2022-11-15T14:50:38;92361.75;;;14.72;47.82
21742;BME280;11033;47.490;11.116;2022-11-15T14:53:04;92362.22;;;14.69;46.70
21742;BME280;11033;47.490;11.116;2022-11-15T14:55:34;92362.28;;;14.46;48.71
21742;BME280;11033;47.490;11.116;2022-11-15T14:58:03;92366.75;;;14.34;48.79
21742;BME280;11033;47.490;11.116;2022-11-15T15:00:32;92373.78;;;14.40;48.16
21742;BME280;11033;47.490;11.116;2022-11-15T15:02:57;92374.78;;;14.27;47.64